Time;durP1;ratioP1;P1;durP2;ratioP2;P2;SDS_P1;SDS_P2;PMS_P1;PMS_P2;Temp;Humidity;BMP_temperature;BMP_pressure;BME280_temperature;BME280_humidity;BME280_pressure;Samples;Min_cycle;Max_cycle;Signal;HPM_P1;HPM_P2
2022/08/07 00:01:21;;;;;;;5.47;1.60;;;;;;;14.32;73.21;102823.56;5033327;28;20112;-75
2022/08/07 00:03:46;;;;;;;5.20;1.70;;;;;;;14.31;73.98;102821.81;5033762;28;20029;-76
2022/08/07 00:06:12;;;;;;;1.87;1.33;;;;;;;14.14;74.17;102822.84;5034831;28;20092;-76
2022/08/07 00:08:37;;;;;;;2.93;1.97;;;;;;;14.18;74.36;102817.84;5035016;28;20400;-77
2022/08/07 00:11:04;;;;;;;2.27;1.60;;;;;;;14.22;74.46;102816.50;5030805;28;20479;-75
2022/08/07 00:13:29;;;;;;;2.58;1.65;;;;;;;14.23;73.70;102815.47;5031487;28;20025;-76
2022/08/07 00:15:55;;;;;;;3.77;2.13;;;;;;;14.18;75.12;102810.44;5041504;28;20055;-76
2022/08/07 00:18:24;;;;;;;3.20;1.90;;;;;;;14.18;75.41;102810.44;5033045;28;20025;-75
2022/08/07 00:20:57;;;;;;;3.45;1.83;;;;;;;14.19;73.70;102814.06;5036153;28;20496;-76
2022/08/07 00:23:23;;;;;;;5.78;1.80;;;;;;;14.11;75.34;102814.94;5049555;28;20051;-74
2022/08/07 00:25:49;;;;;;;5.17;1.57;;;;;;;14.05;74.68;102814.75;5030851;28;20037;-76
2022/08/07 00:28:14;;;;;;;5.03;1.90;;;;;;;14.03;75.37;102808.56;5031003;28;20526;-75
2022/08/07 00:30:39;;;;;;;2.77;1.63;;;;;;;14.09;74.51;102805.09;5045992;28;20022;-76
2022/08/07 00:33:05;;;;;;;3.83;2.20;;;;;;;14.07;75.17;102807.16;5035708;28;20029;-76
2022/08/07 00:35:30;;;;;;;3.20;1.80;;;;;;;14.07;74.21;102807.16;5045904;28;20534;-75
2022/08/07 00:37:56;;;;;;;4.07;2.80;;;;;;;14.09;74.34;102802.34;5037492;28;20044;-75
2022/08/07 00:40:21;;;;;;;3.47;1.90;;;;;;;14.04;74.55;102791.81;5033163;28;20499;-75
2022/08/07 00:42:47;;;;;;;3.23;2.10;;;;;;;14.02;73.89;102798.53;5043114;28;20108;-75
2022/08/07 00:45:12;;;;;;;4.00;1.90;;;;;;;13.95;74.98;102786.50;5029172;28;20053;-75
2022/08/07 00:47:38;;;;;;;3.80;2.00;;;;;;;13.92;74.67;102784.09;5030639;28;20691;-75
2022/08/07 00:50:04;;;;;;;6.50;2.13;;;;;;;13.87;75.27;102781.84;5031129;28;20029;-76
2022/08/07 00:52:30;;;;;;;2.88;2.10;;;;;;;13.84;75.03;102784.09;5030935;28;20096;-75
2022/08/07 00:54:55;;;;;;;2.13;1.87;;;;;;;13.76;76.09;102775.84;5038800;28;20043;-75
2022/08/07 00:57:22;;;;;;;6.37;2.90;;;;;;;13.80;75.40;102778.06;5029926;28;20038;-75
2022/08/07 00:59:48;;;;;;;4.05;2.58;;;;;;;13.77;75.50;102774.78;5030748;28;20354;-75
2022/08/07 01:02:13;;;;;;;7.53;2.90;;;;;;;13.76;75.76;102775.84;5032755;28;20029;-75
2022/08/07 01:04:39;;;;;;;5.00;3.27;;;;;;;13.75;75.84;102777.72;5031652;28;20027;-75
2022/08/07 01:07:04;;;;;;;6.13;3.53;;;;;;;13.75;75.48;102779.59;5030496;28;20039;-75
2022/08/07 01:09:31;;;;;;;5.03;3.30;;;;;;;13.71;75.55;102778.22;5030459;28;20025;-75
2022/08/07 01:11:57;;;;;;;7.60;4.13;;;;;;;13.73;76.64;102777.03;5030254;28;20022;-75
2022/08/07 01:14:23;;;;;;;4.90;3.97;;;;;;;13.65;76.48;102773.38;5045310;28;20098;-74
2022/08/07 01:16:49;;;;;;;18.65;6.07;;;;;;;13.61;76.59;102783.03;5045783;28;20068;-75
2022/08/07 01:19:20;;;;;;;12.25;6.75;;;;;;;13.60;76.47;102781.31;5043831;28;21014;-76
2022/08/07 01:21:47;;;;;;;12.77;7.22;;;;;;;13.55;76.20;102772.69;5045601;28;20122;-76
2022/08/07 01:24:14;;;;;;;10.75;5.32;;;;;;;13.56;75.61;102775.25;5038031;28;20060;-75
2022/08/07 01:26:40;;;;;;;;;;;;;;;13.64;75.91;102775.28;5045997;28;20032;-75
2022/08/07 01:29:05;;;;;;;7.53;4.63;;;;;;;13.63;76.91;102776.31;5030564;28;19924;-75
2022/08/07 01:31:31;;;;;;;8.50;4.73;;;;;;;13.65;75.62;102768.75;5040841;28;20548;-76
2022/08/07 01:34:00;;;;;;;17.67;4.13;;;;;;;13.60;76.49;102775.81;5043628;28;20481;-75
2022/08/07 01:36:28;;;;;;;5.97;4.00;;;;;;;13.60;76.36;102779.41;5033156;28;20109;-75
2022/08/07 01:38:54;;;;;;;7.18;3.28;;;;;;;13.63;76.94;102776.31;5046407;28;20052;-75
2022/08/07 01:41:20;;;;;;;4.65;3.33;;;;;;;13.66;75.90;102772.38;5039467;28;20108;-74
2022/08/07 01:43:47;;;;;;;4.07;3.35;;;;;;;13.57;76.40;102777.00;5045703;28;20116;-75
2022/08/07 01:46:14;;;;;;;7.18;3.13;;;;;;;13.60;76.16;102775.81;5046497;28;20033;-75
2022/08/07 01:48:41;;;;;;;3.72;2.97;;;;;;;13.58;77.05;102772.34;5044117;28;20059;-75
2022/08/07 01:51:10;;;;;;;6.85;3.00;;;;;;;13.52;75.91;102776.66;5042619;28;20037;-76
2022/08/07 01:53:38;;;;;;;6.43;2.70;;;;;;;13.53;76.52;102764.59;5044788;28;20030;-75
2022/08/07 01:56:13;;;;;;;4.47;2.35;;;;;;;13.51;76.76;102766.66;5038097;28;20169;-76
2022/08/07 01:58:43;;;;;;;7.18;2.70;;;;;;;13.52;76.38;102762.88;5049023;28;20037;-76
2022/08/07 02:01:14;;;;;;;6.82;2.80;;;;;;;13.43;75.74;102768.53;5050027;28;20041;-76
2022/08/07 02:03:48;;;;;;;2.92;2.50;;;;;;;13.36;77.85;102770.25;5041716;28;20026;-75
2022/08/07 02:06:15;;;;;;;2.30;2.10;;;;;;;13.41;76.83;102770.59;5047728;28;20112;-76
2022/08/07 02:08:43;;;;;;;5.75;2.80;;;;;;;13.36;76.66;102761.97;5029896;28;20032;-75
2022/08/07 02:11:10;;;;;;;2.83;2.30;;;;;;;13.33;77.76;102762.31;5029730;28;20112;-75
2022/08/07 02:13:37;;;;;;;5.55;2.55;;;;;;;13.29;76.20;102759.03;5035856;28;20028;-75
2022/08/07 02:16:06;;;;;;;4.07;2.63;;;;;;;13.25;76.95;102748.53;5030783;28;20033;-76
2022/08/07 02:18:35;;;;;;;3.90;2.45;;;;;;;13.16;77.20;102753.16;5043697;28;20139;-75
2022/08/07 02:21:04;;;;;;;3.38;2.50;;;;;;;13.18;78.24;102759.34;5049073;28;20021;-75
2022/08/07 02:23:33;;;;;;;6.13;2.78;;;;;;;13.20;77.55;102757.31;5032953;28;20029;-74
2022/08/07 02:26:01;;;;;;;6.28;2.50;;;;;;;13.12;78.69;102756.44;5042253;28;20029;-75
2022/08/07 02:28:28;;;;;;;3.38;2.50;;;;;;;13.13;79.81;102755.38;5046504;28;20087;-75
2022/08/07 02:30:54;;;;;;;;;;;;;;;13.10;79.42;102752.97;5050982;28;20041;-74
2022/08/07 02:33:22;;;;;;;4.88;2.15;;;;;;;13.09;78.83;102756.75;5034936;28;20253;-76
2022/08/07 02:35:49;;;;;;;4.97;2.45;;;;;;;13.09;77.95;102756.75;5032825;28;20065;-75
2022/08/07 02:38:17;;;;;;;2.88;2.47;;;;;;;13.08;79.30;102747.63;5049874;28;20459;-76
2022/08/07 02:40:43;;;;;;;6.00;2.75;;;;;;;13.01;79.49;102749.31;5045439;28;20132;-76
2022/08/07 02:43:09;;;;;;;3.45;2.35;;;;;;;13.04;78.30;102748.13;5032575;28;20034;-76
2022/08/07 02:45:37;;;;;;;7.00;2.47;;;;;;;12.95;79.99;102746.34;5053015;28;20029;-75
2022/08/07 02:48:03;;;;;;;4.47;2.55;;;;;;;12.99;78.58;102747.75;5046191;28;20029;-76
2022/08/07 02:50:31;;;;;;;3.00;2.40;;;;;;;13.01;80.46;102734.69;5048325;28;20031;-75
2022/08/07 02:53:05;;;;;;;4.00;2.28;;;;;;;12.98;80.03;102746.06;5033196;28;20108;-75
2022/08/07 02:55:35;;;;;;;4.55;2.53;;;;;;;12.95;79.81;102743.59;5031483;28;20036;-74
2022/08/07 02:58:05;;;;;;;3.92;2.50;;;;;;;12.92;80.98;102741.19;5032897;28;20029;-76
2022/08/07 03:00:33;;;;;;;2.85;2.20;;;;;;;12.98;79.89;102746.06;5035440;28;20080;-76
2022/08/07 03:02:59;;;;;;;3.45;2.67;;;;;;;12.97;79.99;102744.34;5035974;28;20034;-76
2022/08/07 03:05:25;;;;;;;6.25;2.40;;;;;;;12.91;78.84;102742.22;5032503;28;20029;-75
2022/08/07 03:07:53;;;;;;;3.73;2.20;;;;;;;12.84;79.66;102733.75;5051126;28;20447;-75
2022/08/07 03:10:18;;;;;;;4.22;2.13;;;;;;;12.83;80.33;102742.16;5050484;28;20400;-75
2022/08/07 03:12:48;;;;;;;7.37;2.70;;;;;;;12.82;81.23;102740.44;5045134;28;20033;-76
2022/08/07 03:15:14;;;;;;;4.68;2.63;;;;;;;12.89;81.19;102741.50;5053092;28;20111;-75
2022/08/07 03:17:41;;;;;;;5.33;2.80;;;;;;;12.83;81.66;102737.53;5047590;28;20568;-75
2022/08/07 03:20:07;;;;;;;3.55;2.83;;;;;;;12.81;81.94;102733.22;5034906;28;20057;-76
2022/08/07 03:22:33;;;;;;;4.07;2.67;;;;;;;12.77;81.71;102742.84;5032125;28;20029;-74
2022/08/07 03:24:59;;;;;;;5.43;2.70;;;;;;;12.79;81.61;102738.03;5052828;28;20040;-75
2022/08/07 03:27:26;;;;;;;4.57;2.67;;;;;;;12.79;80.59;102740.78;5049905;28;20029;-76
2022/08/07 03:29:52;;;;;;;;;;;;;;;12.77;80.78;102737.34;5037929;28;20191;-75
2022/08/07 03:32:32;;;;;;;6.00;3.13;;;;;;;12.71;81.76;102738.00;5035362;28;20007;-75
2022/08/07 03:34:59;;;;;;;5.40;2.80;;;;;;;12.66;80.92;102729.38;5032971;28;20403;-75
2022/08/07 03:37:26;;;;;;;4.15;3.03;;;;;;;12.68;81.00;102728.19;5035449;28;20098;-75
2022/08/07 03:39:52;;;;;;;5.40;2.85;;;;;;;12.65;81.59;102734.00;5032971;28;20096;-75
2022/08/07 03:42:19;;;;;;;5.85;3.15;;;;;;;12.68;81.08;102736.44;5046451;28;20044;-75
2022/08/07 03:44:44;;;;;;;6.40;3.15;;;;;;;12.68;82.30;102724.56;5050330;28;20029;-75
2022/08/07 03:47:11;;;;;;;4.77;2.83;;;;;;;12.66;81.71;102726.63;5047601;28;20047;-76
2022/08/07 03:49:37;;;;;;;8.77;3.00;;;;;;;12.66;81.74;102718.38;5052127;28;20112;-76
2022/08/07 03:52:04;;;;;;;6.40;3.50;;;;;;;12.64;81.79;102724.03;5038875;28;20034;-76
2022/08/07 03:54:29;;;;;;;3.13;2.75;;;;;;;12.62;81.39;102722.47;5031703;28;20104;-75
2022/08/07 03:56:56;;;;;;;5.17;2.83;;;;;;;12.60;82.24;102722.63;5035946;28;20120;-75
2022/08/07 03:59:21;;;;;;;9.27;4.20;;;;;;;12.63;81.99;102722.31;5031989;28;20033;-76
2022/08/07 04:01:47;;;;;;;4.43;3.23;;;;;;;12.61;82.53;102726.25;5043306;28;20108;-76
2022/08/07 04:04:17;;;;;;;4.70;3.80;;;;;;;12.63;82.15;102729.69;5051132;28;20025;-77
2022/08/07 04:06:43;;;;;;;4.43;3.42;;;;;;;12.64;81.84;102726.78;5048178;28;20036;-76
2022/08/07 04:09:08;;;;;;;4.35;3.08;;;;;;;12.67;81.48;102726.47;5041329;28;20101;-76
2022/08/07 04:11:35;;;;;;;5.60;3.23;;;;;;;12.70;82.12;102736.28;5030594;28;20120;-75
2022/08/07 04:14:02;;;;;;;4.93;3.20;;;;;;;12.70;82.15;102741.78;5032035;28;20087;-75
2022/08/07 04:16:28;;;;;;;4.70;3.67;;;;;;;12.51;82.83;102736.50;5040287;28;20124;-74
2022/08/07 04:18:53;;;;;;;5.77;3.37;;;;;;;12.61;82.05;102746.38;5031377;28;20124;-75
2022/08/07 04:21:19;;;;;;;5.70;3.33;;;;;;;12.61;82.23;102742.75;5032231;28;20109;-75
2022/08/07 04:23:45;;;;;;;6.53;3.53;;;;;;;12.57;82.87;102746.84;5051465;28;20090;-75
2022/08/07 04:26:11;;;;;;;5.57;4.13;;;;;;;12.57;82.03;102744.97;5042403;28;20109;-75
2022/08/07 04:28:37;;;;;;;6.82;3.30;;;;;;;12.60;83.25;102739.13;5031092;28;20100;-75
2022/08/07 04:31:03;;;;;;;6.00;4.30;;;;;;;12.65;81.77;102739.50;5029448;28;20124;-74
2022/08/07 04:33:29;;;;;;;6.90;3.90;;;;;;;12.64;82.23;102753.44;5044725;28;20053;-76
2022/08/07 04:35:55;;;;;;;6.43;3.30;;;;;;;12.65;82.58;102753.25;5031449;28;20123;-75
2022/08/07 04:38:21;;;;;;;6.95;3.63;;;;;;;12.69;81.31;102745.53;5038179;28;20871;-74
2022/08/07 04:40:47;;;;;;;4.60;3.83;;;;;;;12.71;82.45;102743.50;5040807;28;20670;-75
2022/08/07 04:43:18;;;;;;;4.70;3.90;;;;;;;12.72;81.63;102745.22;5029639;28;20037;-75
2022/08/07 04:45:54;;;;;;;7.60;3.65;;;;;;;12.78;82.88;102739.06;5033990;28;20518;-75
2022/08/07 04:48:51;;;;;;;5.78;3.78;;;;;;;12.77;82.95;102748.34;5049572;28;20452;-74
2022/08/07 04:51:32;;;;;;;8.38;4.30;;;;;;;12.80;83.62;102748.03;5026342;28;20042;-75
2022/08/07 04:54:09;;;;;;;6.88;3.50;;;;;;;12.81;82.64;102744.22;5038459;28;20028;-75
2022/08/07 04:56:46;;;;;;;5.95;3.80;;;;;;;12.85;83.54;102751.97;5044215;28;20067;-75
2022/08/07 04:59:20;;;;;;;5.53;3.85;;;;;;;12.81;82.89;102741.47;5050025;28;20132;-75
2022/08/07 05:01:59;;;;;;;6.18;4.32;;;;;;;12.88;83.49;102748.03;5031486;28;20033;-75
2022/08/07 05:04:37;;;;;;;7.65;4.32;;;;;;;12.90;82.40;102743.22;5036508;28;20112;-75
2022/08/07 05:07:11;;;;;;;4.72;3.53;;;;;;;12.88;83.17;102756.28;5029651;28;20044;-75
2022/08/07 05:10:06;;;;;;;6.03;3.92;;;;;;;12.90;82.34;102754.22;5029455;28;20033;-75
2022/08/07 05:12:53;;;;;;;6.05;3.75;;;;;;;12.91;80.91;102751.31;5045014;28;20515;-75
2022/08/07 05:15:25;;;;;;;9.02;3.72;;;;;;;12.95;81.30;102757.34;5040140;28;20025;-75
2022/08/07 05:18:01;;;;;;;4.90;3.67;;;;;;;13.03;81.87;102754.66;5039917;28;20477;-75
2022/08/07 05:20:32;;;;;;;4.13;3.47;;;;;;;12.98;81.83;102751.56;5029616;28;20065;-75
2022/08/07 05:23:03;;;;;;;5.90;3.72;;;;;;;13.11;81.84;102760.19;5047246;28;20158;-75
2022/08/07 05:25:30;;;;;;;6.00;4.10;;;;;;;13.20;81.66;102767.44;5035933;28;20990;-75
2022/08/07 05:27:56;;;;;;;4.20;3.75;;;;;;;13.26;82.27;102764.88;5030575;28;20037;-75
2022/08/07 05:30:24;;;;;;;5.38;3.85;;;;;;;13.38;81.19;102765.41;5038795;28;20044;-75
2022/08/07 05:32:51;;;;;;;6.88;4.40;;;;;;;13.47;81.83;102759.78;5031354;28;20114;-75
2022/08/07 05:35:18;;;;;;;;;;;;;;;13.63;81.00;102764.44;5029889;28;20388;-75
2022/08/07 05:37:45;;;;;;;8.18;4.35;;;;;;;13.78;81.08;102766.31;5030371;28;19947;-75
2022/08/07 05:40:11;;;;;;;7.65;4.55;;;;;;;13.89;80.87;102759.63;5039654;28;20083;-75
2022/08/07 05:42:37;;;;;;;10.00;4.90;;;;;;;14.04;80.20;102767.03;5028378;28;20532;-75
2022/08/07 05:45:04;;;;;;;11.03;5.03;;;;;;;14.12;79.81;102766.16;5032000;28;20033;-75
2022/08/07 05:47:32;;;;;;;5.70;4.90;;;;;;;14.31;79.23;102771.34;5049765;28;20040;-75
2022/08/07 05:49:58;;;;;;;7.05;4.38;;;;;;;14.48;77.87;102767.53;5031580;28;20120;-75
2022/08/07 05:52:24;;;;;;;6.25;4.60;;;;;;;14.66;76.81;102762.63;5040040;28;20396;-75
2022/08/07 05:54:49;;;;;;;7.00;4.20;;;;;;;14.78;75.99;102761.25;5040749;28;20052;-76
2022/08/07 05:57:16;;;;;;;7.67;4.40;;;;;;;14.94;75.74;102759.25;5029155;28;20025;-75
2022/08/07 05:59:43;;;;;;;5.72;4.85;;;;;;;15.10;75.02;102761.94;5032767;28;20037;-75
2022/08/07 06:02:12;;;;;;;6.80;4.07;;;;;;;15.10;74.96;102767.47;5048630;28;20122;-75
2022/08/07 06:04:41;;;;;;;5.50;4.20;;;;;;;15.28;74.77;102770.84;5042404;28;20025;-75
2022/08/07 06:07:07;;;;;;;6.78;4.10;;;;;;;15.42;73.99;102759.03;5031928;28;20468;-76
2022/08/07 06:09:33;;;;;;;6.15;4.05;;;;;;;15.59;72.90;102771.69;5034933;28;20029;-76
2022/08/07 06:11:58;;;;;;;8.73;4.30;;;;;;;15.57;72.66;102779.31;5043245;28;20033;-75
2022/08/07 06:14:24;;;;;;;10.80;4.57;;;;;;;15.69;72.21;102779.75;5032889;28;20718;-75
2022/08/07 06:16:50;;;;;;;8.43;4.20;;;;;;;15.75;72.27;102784.56;5032715;28;20052;-76
2022/08/07 06:19:17;;;;;;;10.70;4.35;;;;;;;16.25;70.70;102782.91;5037983;28;20110;-76
2022/08/07 06:21:43;;;;;;;;;;;;;;;17.35;66.79;102791.19;5039535;28;20048;-75
2022/08/07 06:24:08;;;;;;;5.38;4.18;;;;;;;17.26;65.72;102782.13;5040242;28;19917;-75
2022/08/07 06:26:34;;;;;;;6.17;3.70;;;;;;;16.86;67.47;102790.09;5032051;28;20053;-75
2022/08/07 06:28:59;;;;;;;10.80;4.30;;;;;;;17.00;66.83;102787.31;5042186;28;20118;-75
2022/08/07 06:31:25;;;;;;;6.87;4.03;;;;;;;17.66;65.55;102778.78;5050359;28;20028;-75
2022/08/07 06:33:51;;;;;;;6.03;4.50;;;;;;;19.15;61.38;102770.84;5038912;28;20029;-76
2022/08/07 06:36:16;;;;;;;5.23;3.97;;;;;;;20.06;58.08;102773.06;5032216;28;20059;-75
2022/08/07 06:38:43;;;;;;;6.30;4.03;;;;;;;20.98;56.91;102780.31;5031824;28;20037;-76
2022/08/07 06:41:17;;;;;;;4.80;4.20;;;;;;;21.36;54.43;102775.69;5033035;28;20037;-75
2022/08/07 06:43:44;;;;;;;5.82;4.30;;;;;;;21.98;52.94;102767.44;5031875;28;20184;-75
2022/08/07 06:46:10;;;;;;;5.35;4.20;;;;;;;22.66;50.17;102767.28;5032357;28;20068;-75
2022/08/07 06:48:36;;;;;;;5.78;4.07;;;;;;;22.80;49.66;102759.63;5032682;28;20029;-76
2022/08/07 06:51:07;;;;;;;7.10;4.10;;;;;;;22.89;48.85;102759.06;5045471;28;20045;-75
2022/08/07 06:53:35;;;;;;;5.95;4.10;;;;;;;22.96;49.95;102767.41;5039962;28;20041;-75
2022/08/07 06:56:02;;;;;;;7.50;4.25;;;;;;;22.48;49.68;102761.66;5047736;28;20032;-74
2022/08/07 06:58:28;;;;;;;6.30;4.00;;;;;;;23.19;48.04;102761.97;5035981;28;20037;-75
2022/08/07 07:00:56;;;;;;;6.13;3.63;;;;;;;23.43;45.68;102756.28;5051622;28;20033;-76
2022/08/07 07:03:21;;;;;;;7.28;3.42;;;;;;;23.52;46.14;102756.84;5046542;28;20033;-74
2022/08/07 07:05:47;;;;;;;4.43;3.53;;;;;;;23.49;45.88;102757.28;5045097;28;20037;-74
2022/08/07 07:08:12;;;;;;;4.13;2.85;;;;;;;23.30;46.83;102764.00;5034853;28;20052;-75
2022/08/07 07:10:37;;;;;;;4.03;2.70;;;;;;;23.34;45.90;102771.72;5039304;28;20029;-76
2022/08/07 07:13:12;;;;;;;4.57;3.00;;;;;;;23.24;45.88;102764.94;5034199;28;20037;-75
2022/08/07 07:15:41;;;;;;;4.30;3.20;;;;;;;23.21;45.21;102766.25;5035657;28;20354;-77
2022/08/07 07:18:21;;;;;;;5.65;2.92;;;;;;;23.24;46.49;102765.81;5036916;28;20045;-76
2022/08/07 07:20:51;;;;;;;5.55;3.45;;;;;;;23.44;45.43;102759.94;5033198;28;20037;-75
2022/08/07 07:23:17;;;;;;;3.58;2.97;;;;;;;23.50;45.79;102767.41;5047844;28;20037;-75
2022/08/07 07:25:44;;;;;;;7.78;3.47;;;;;;;23.26;46.62;102768.38;5032266;28;20465;-76
2022/08/07 07:28:13;;;;;;;6.57;3.65;;;;;;;23.13;45.70;102776.88;5038162;28;20025;-75
2022/08/07 07:30:44;;;;;;;2.80;2.55;;;;;;;23.21;46.81;102779.41;5037950;28;20037;-75
2022/08/07 07:33:13;;;;;;;5.13;3.45;;;;;;;23.05;46.94;102772.44;5038835;28;20443;-76
2022/08/07 07:35:45;;;;;;;5.35;2.80;;;;;;;23.36;45.29;102769.50;5032383;28;20048;-76
2022/08/07 07:38:12;;;;;;;3.72;2.45;;;;;;;23.14;45.69;102779.44;5043781;28;20392;-77
2022/08/07 07:40:40;;;;;;;2.10;1.90;;;;;;;22.92;46.19;102778.19;5041257;28;20052;-76
2022/08/07 07:43:07;;;;;;;2.80;2.40;;;;;;;22.81;46.04;102783.69;5037048;28;20057;-75
2022/08/07 07:45:32;;;;;;;2.67;2.40;;;;;;;22.88;46.60;102778.91;5055817;28;20044;-76
2022/08/07 07:47:59;;;;;;;6.30;2.60;;;;;;;22.76;47.85;102789.97;5035635;28;20029;-75
2022/08/07 07:50:26;;;;;;;7.75;2.80;;;;;;;22.56;47.68;102778.13;5045469;28;20425;-75
2022/08/07 07:52:52;;;;;;;3.13;2.58;;;;;;;22.80;48.50;102776.38;5034993;28;20655;-75
2022/08/07 07:55:19;;;;;;;5.50;3.13;;;;;;;22.98;47.81;102777.25;5059217;28;20036;-76
2022/08/07 07:57:47;;;;;;;2.97;2.63;;;;;;;22.68;47.43;102781.03;5046159;28;20041;-75
2022/08/07 08:00:13;;;;;;;3.08;2.58;;;;;;;22.41;48.06;102768.38;5042546;28;20440;-75
2022/08/07 08:02:40;;;;;;;;;;;;;;;22.36;48.03;102771.81;5032391;28;20021;-75
2022/08/07 08:05:07;;;;;;;5.75;2.42;;;;;;;22.15;48.12;102779.75;5046467;28;20445;-75
2022/08/07 08:07:35;;;;;;;4.57;3.28;;;;;;;22.36;48.21;102776.56;5037418;28;20041;-75
2022/08/07 08:10:03;;;;;;;5.65;2.97;;;;;;;22.07;49.92;102771.63;5044538;28;20364;-75
2022/08/07 08:12:30;;;;;;;5.22;3.50;;;;;;;21.36;51.04;102770.97;5036415;28;20026;-74
2022/08/07 08:14:56;;;;;;;4.90;2.92;;;;;;;22.01;49.50;102773.41;5030194;28;20441;-75
2022/08/07 08:17:22;;;;;;;7.07;2.60;;;;;;;21.54;50.33;102765.50;5037868;28;20032;-74
2022/08/07 08:19:51;;;;;;;6.80;2.97;;;;;;;21.54;50.58;102765.50;5030232;28;20025;-77
2022/08/07 08:27:52;;;;;;;6.18;3.55;;;;;;;21.50;50.14;102755.03;5041253;28;20583;-75
2022/08/07 08:30:18;;;;;;;5.57;3.22;;;;;;;21.59;49.99;102756.47;5046547;28;20526;-75
2022/08/07 08:32:48;;;;;;;4.80;3.22;;;;;;;21.00;50.89;102744.72;5044598;28;20100;-75
2022/08/07 08:35:20;;;;;;;5.18;3.38;;;;;;;20.96;51.00;102751.84;5044450;28;20492;-74
2022/08/07 08:37:47;;;;;;;7.18;2.72;;;;;;;21.35;50.47;102749.72;5046128;28;20120;-75
2022/08/07 08:40:21;;;;;;;4.15;3.03;;;;;;;21.57;48.57;102736.31;5029535;28;20421;-74
2022/08/07 08:42:57;;;;;;;5.18;2.78;;;;;;;21.61;49.46;102743.16;5047008;28;20103;-74
2022/08/07 08:45:54;;;;;;;3.65;2.60;;;;;;;21.39;48.41;102756.56;5041594;28;20126;-74
2022/08/07 08:48:42;;;;;;;4.70;2.70;;;;;;;21.79;47.30;102740.50;5034360;28;20496;-74
2022/08/07 08:51:17;;;;;;;3.65;2.28;;;;;;;21.85;46.75;102746.03;5033582;28;20440;-74
2022/08/07 08:53:56;;;;;;;6.18;2.38;;;;;;;21.49;47.75;102730.97;5031754;28;20783;-74
2022/08/07 08:56:52;;;;;;;4.15;2.50;;;;;;;21.42;47.39;102738.53;5029528;28;20029;-74
2022/08/07 08:59:26;;;;;;;3.25;2.50;;;;;;;21.75;45.26;102742.88;5038429;28;20095;-74
2022/08/07 09:02:08;;;;;;;3.83;2.38;;;;;;;21.89;46.17;102738.06;5033870;28;20427;-74
2022/08/07 09:04:43;;;;;;;3.63;2.35;;;;;;;21.83;45.71;102738.97;5048976;28;20025;-74
2022/08/07 09:07:41;;;;;;;6.75;2.90;;;;;;;21.96;46.17;102742.53;5040094;28;20385;-74
2022/08/07 09:10:20;;;;;;;6.15;2.35;;;;;;;22.23;44.96;102746.81;5034794;28;20043;-74
2022/08/07 09:13:05;;;;;;;3.17;2.45;;;;;;;22.22;43.81;102747.91;5040043;28;20017;-74
2022/08/07 09:15:53;;;;;;;2.78;2.10;;;;;;;22.39;45.74;102742.56;5048170;28;20032;-73
2022/08/07 09:18:48;;;;;;;3.63;2.50;;;;;;;22.38;44.09;102743.66;5049850;28;20476;-74
2022/08/07 09:21:35;;;;;;;2.08;1.95;;;;;;;22.77;42.88;102749.75;5049430;28;20055;-75
2022/08/07 09:24:25;;;;;;;2.65;2.10;;;;;;;23.02;43.29;102742.16;5041537;28;20025;-74
2022/08/07 09:27:15;;;;;;;7.13;3.13;;;;;;;22.83;43.19;102743.22;5048235;28;20357;-76
2022/08/07 09:29:49;;;;;;;4.82;2.50;;;;;;;22.54;43.75;102740.31;5048512;28;20101;-76
2022/08/07 09:32:33;;;;;;;3.05;2.30;;;;;;;22.97;44.05;102741.16;5047953;28;20033;-75
2022/08/07 09:35:21;;;;;;;3.63;2.03;;;;;;;23.43;43.25;102742.28;5032683;28;22219;-76
2022/08/07 09:38:24;;;;;;;2.80;2.20;;;;;;;23.28;40.76;102736.28;5040144;28;20037;-76
2022/08/07 09:41:05;;;;;;;2.50;1.92;;;;;;;23.20;42.88;102742.19;5033966;28;20113;-76
2022/08/07 09:43:48;;;;;;;2.38;2.10;;;;;;;23.36;41.21;102737.91;5029268;28;20104;-76
2022/08/07 09:46:51;;;;;;;3.88;2.28;;;;;;;23.34;40.36;102737.25;5032085;28;20037;-76
2022/08/07 09:49:31;;;;;;;3.05;1.90;;;;;;;23.61;38.51;102739.47;5037724;28;20029;-76
2022/08/07 09:52:01;;;;;;;1.83;1.70;;;;;;;23.68;37.74;102725.41;5034141;28;20033;-76
2022/08/07 09:54:37;;;;;;;3.72;1.70;;;;;;;23.87;38.64;102722.28;5027974;28;20040;-76
2022/08/07 09:57:24;;;;;;;2.03;1.58;;;;;;;24.20;38.38;102714.22;5040776;28;20195;-76
2022/08/07 10:00:08;;;;;;;3.05;1.90;;;;;;;23.97;36.09;102707.72;5032659;28;20463;-75
2022/08/07 10:02:45;;;;;;;17.30;2.22;;;;;;;24.15;36.38;102716.88;5029467;28;20098;-75
2022/08/07 10:05:37;;;;;;;3.38;1.90;;;;;;;23.94;37.79;102716.59;5042794;28;20034;-77
2022/08/07 10:08:27;;;;;;;5.65;2.22;;;;;;;23.77;39.23;102716.41;5043428;28;20064;-75
2022/08/07 10:11:09;;;;;;;9.45;3.03;;;;;;;23.92;38.70;102705.66;5027235;28;20385;-75
2022/08/07 10:13:42;;;;;;;3.58;1.90;;;;;;;24.25;38.23;102708.75;5039963;28;20104;-76
2022/08/07 10:16:20;;;;;;;2.47;1.88;;;;;;;24.43;34.68;102700.22;5037791;28;20073;-76
2022/08/07 10:19:02;;;;;;;2.38;1.95;;;;;;;24.31;34.69;102706.91;5038822;28;20025;-75
2022/08/07 10:21:57;;;;;;;2.17;1.90;;;;;;;24.46;34.04;102704.47;5039189;28;20040;-75
2022/08/07 10:24:37;;;;;;;3.13;1.27;;;;;;;24.28;32.87;102707.41;5029277;28;20037;-75
2022/08/07 10:27:39;;;;;;;2.13;1.40;;;;;;;24.45;33.37;102697.16;5036700;28;20527;-75
2022/08/07 10:30:16;;;;;;;4.30;1.55;;;;;;;24.30;32.48;102692.06;5034524;28;20076;-75
2022/08/07 10:33:16;;;;;;;3.97;1.55;;;;;;;24.35;31.17;102685.72;5033827;28;20021;-76
2022/08/07 10:36:19;;;;;;;2.75;1.60;;;;;;;24.24;30.56;102678.16;5039548;28;20060;-74
2022/08/07 10:38:56;;;;;;;1.10;1.00;;;;;;;24.32;31.08;102681.44;5029624;28;20036;-73
2022/08/07 10:41:32;;;;;;;2.85;1.60;;;;;;;24.28;30.18;102679.38;5030495;28;20765;-76
2022/08/07 10:44:26;;;;;;;4.32;1.98;;;;;;;24.76;30.85;102680.00;5037193;28;20033;-75
2022/08/07 10:47:17;;;;;;;4.18;1.88;;;;;;;24.93;32.80;102676.19;5031376;28;20064;-74
2022/08/07 10:50:17;;;;;;;5.50;1.88;;;;;;;25.25;33.12;102671.00;5035429;28;20075;-74
2022/08/07 10:52:51;;;;;;;2.80;2.30;;;;;;;25.05;33.41;102670.53;5018743;28;20129;-74
2022/08/07 10:55:22;;;;;;;4.07;2.00;;;;;;;25.26;33.43;102679.16;5030815;28;20060;-75
2022/08/07 10:58:12;;;;;;;3.92;2.20;;;;;;;25.35;33.02;102676.81;5032698;28;20033;-75
2022/08/07 11:00:51;;;;;;;3.13;2.28;;;;;;;24.78;33.18;102666.56;5034831;28;20037;-75
2022/08/07 11:03:44;;;;;;;3.22;2.25;;;;;;;25.43;32.19;102663.22;5043256;28;20740;-75
2022/08/07 11:06:18;;;;;;;3.83;2.35;;;;;;;25.02;34.60;102668.25;5032454;28;20203;-75
2022/08/07 11:09:02;;;;;;;4.22;2.55;;;;;;;25.36;34.88;102662.53;5035550;28;20040;-75
2022/08/07 11:11:52;;;;;;;7.20;2.35;;;;;;;25.48;34.16;102654.03;5031908;28;20443;-75
2022/08/07 11:14:38;;;;;;;5.25;3.20;;;;;;;25.03;34.39;102644.69;5040241;28;20037;-75
2022/08/07 11:17:33;;;;;;;6.30;2.80;;;;;;;25.40;36.08;102651.66;5032208;28;20488;-75
2022/08/07 11:20:11;;;;;;;4.22;2.33;;;;;;;25.59;35.01;102644.69;5039796;28;20045;-74
2022/08/07 11:22:47;;;;;;;5.68;2.45;;;;;;;25.68;33.88;102637.56;5031770;28;20771;-73
2022/08/07 11:25:22;;;;;;;2.97;2.53;;;;;;;25.08;34.83;102640.03;5032931;28;20033;-75
2022/08/07 11:27:57;;;;;;;3.60;2.40;;;;;;;25.30;34.37;102629.00;5031426;28;20029;-76
2022/08/07 11:30:27;;;;;;;4.60;2.60;;;;;;;25.65;35.29;102626.84;5033772;28;20587;-74
2022/08/07 11:33:01;;;;;;;9.15;2.92;;;;;;;25.52;35.00;102622.41;5039242;28;20056;-76
2022/08/07 11:35:38;;;;;;;3.08;2.25;;;;;;;26.44;33.90;102615.22;5034502;28;20036;-74
2022/08/07 11:38:15;;;;;;;4.93;2.42;;;;;;;26.13;31.62;102621.50;5038884;28;20032;-75
2022/08/07 11:40:45;;;;;;;;;;;;;;;26.03;29.37;102624.19;5031551;28;20683;-76
2022/08/07 11:43:19;;;;;;;2.90;1.63;;;;;;;25.95;29.53;102619.84;5030120;28;19922;-74
2022/08/07 11:46:16;;;;;;;3.55;2.05;;;;;;;26.14;29.47;102609.19;5033366;28;20479;-75
2022/08/07 11:48:53;;;;;;;2.22;1.75;;;;;;;26.12;30.19;102601.00;5034231;28;20037;-76
2022/08/07 11:51:55;;;;;;;3.95;1.75;;;;;;;26.52;29.60;102606.38;5039320;28;20021;-76
2022/08/07 11:54:39;;;;;;;2.58;1.67;;;;;;;26.25;29.19;102609.06;5042733;28;20024;-75